createdAt,value
2023-07-15T00:01:48.531Z,57.62
2023-07-15T00:04:16.821Z,57.69
2023-07-15T00:06:43.454Z,57.64
2023-07-15T00:09:10.750Z,57.65
2023-07-15T00:11:39.041Z,57.76
2023-07-15T00:14:11.911Z,57.98
2023-07-15T00:16:38.626Z,57.86
2023-07-15T00:19:07.020Z,57.54
2023-07-15T00:21:35.239Z,57.55
2023-07-15T00:24:03.135Z,57.57
2023-07-15T00:26:31.208Z,57.70
2023-07-15T00:28:58.356Z,57.42
2023-07-15T00:31:25.926Z,57.32
2023-07-15T00:33:53.058Z,56.98
2023-07-15T00:36:19.752Z,56.87
2023-07-15T00:38:49.591Z,57.69
2023-07-15T00:41:18.436Z,57.63
2023-07-15T00:43:59.361Z,57.84
2023-07-15T00:46:47.037Z,57.96
2023-07-15T00:49:16.906Z,58.34
2023-07-15T00:51:45.164Z,58.25
2023-07-15T00:54:14.460Z,58.40
2023-07-15T00:56:42.311Z,58.11
2023-07-15T00:59:11.020Z,58.29
2023-07-15T01:01:37.862Z,58.05
2023-07-15T01:04:05.505Z,58.05
2023-07-15T01:06:36.784Z,58.50
2023-07-15T01:09:05.748Z,59.03
2023-07-15T01:11:32.343Z,59.09
2023-07-15T01:14:00.040Z,59.25
2023-07-15T01:16:29.439Z,60.05
2023-07-15T01:18:56.482Z,60.30
2023-07-15T01:21:26.749Z,60.38
2023-07-15T01:23:55.643Z,60.48
2023-07-15T01:26:23.144Z,60.28
2023-07-15T01:28:51.330Z,60.25
2023-07-15T01:31:18.630Z,59.57
2023-07-15T01:33:45.346Z,59.47
2023-07-15T01:36:12.193Z,59.10
2023-07-15T01:38:39.016Z,59.01
2023-07-15T01:41:07.108Z,59.31
2023-07-15T01:43:33.989Z,59.64
2023-07-15T01:46:01.123Z,59.82
2023-07-15T01:48:27.744Z,59.38
2023-07-15T01:50:54.344Z,59.21
2023-07-15T01:53:20.957Z,59.14
2023-07-15T01:55:47.553Z,58.83
2023-07-15T01:58:15.858Z,59.06
2023-07-15T02:00:42.504Z,58.78
2023-07-15T02:03:09.359Z,58.38
2023-07-15T02:05:36.173Z,58.59
2023-07-15T02:08:02.891Z,58.51
2023-07-15T02:10:30.762Z,58.36
2023-07-15T02:12:57.371Z,58.30
2023-07-15T02:15:25.657Z,58.15
2023-07-15T02:17:52.480Z,58.28
2023-07-15T02:20:20.441Z,58.11
2023-07-15T02:22:47.278Z,57.66
2023-07-15T02:25:14.162Z,57.87
2023-07-15T02:27:40.838Z,57.74
2023-07-15T02:30:10.216Z,57.93
2023-07-15T02:32:40.700Z,57.80
2023-07-15T02:35:09.860Z,57.91
2023-07-15T02:37:36.915Z,57.74
2023-07-15T02:40:05.536Z,57.80
2023-07-15T02:42:34.433Z,57.73
2023-07-15T02:45:02.266Z,57.73
2023-07-15T02:47:29.170Z,57.82
2023-07-15T02:49:57.985Z,57.65
2023-07-15T02:52:24.745Z,57.92
2023-07-15T02:54:51.310Z,58.04
2023-07-15T02:57:18.304Z,58.11
2023-07-15T02:59:44.954Z,57.79
2023-07-15T03:02:12.859Z,57.59
2023-07-15T03:04:39.557Z,57.73
2023-07-15T03:07:09.264Z,57.80
2023-07-15T03:09:36.780Z,57.63
2023-07-15T03:12:03.561Z,58.00
2023-07-15T03:14:30.150Z,57.99
2023-07-15T03:16:56.993Z,58.18
2023-07-15T03:19:23.621Z,58.84
2023-07-15T03:21:50.250Z,59.13
2023-07-15T03:24:18.222Z,59.33
2023-07-15T03:26:45.811Z,59.59
2023-07-15T03:29:12.501Z,59.51
2023-07-15T03:31:41.174Z,59.94
2023-07-15T03:34:07.802Z,60.17
2023-07-15T03:36:34.708Z,60.13
2023-07-15T03:39:01.541Z,60.58
2023-07-15T03:41:29.518Z,61.06
2023-07-15T03:43:56.719Z,61.06
2023-07-15T03:46:23.401Z,61.24
2023-07-15T03:48:50.133Z,61.39
2023-07-15T03:51:16.668Z,61.44
2023-07-15T03:53:43.242Z,61.72
2023-07-15T03:56:09.958Z,61.72
2023-07-15T03:58:38.112Z,61.87
2023-07-15T04:01:04.979Z,61.85
2023-07-15T04:03:32.061Z,61.98
2023-07-15T04:05:58.742Z,62.12
2023-07-15T04:08:25.303Z,62.42
2023-07-15T04:10:51.990Z,62.52
2023-07-15T04:13:19.028Z,62.38
2023-07-15T04:15:46.997Z,62.50
2023-07-15T04:18:13.837Z,62.04
2023-07-15T04:20:40.515Z,62.14
2023-07-15T04:23:07.149Z,62.45
2023-07-15T04:25:34.182Z,61.98
2023-07-15T04:28:01.052Z,61.91
2023-07-15T04:30:27.721Z,61.60
2023-07-15T04:32:55.678Z,61.47
2023-07-15T04:35:22.674Z,61.38
2023-07-15T04:37:49.430Z,61.58
2023-07-15T04:40:16.142Z,61.47
2023-07-15T04:42:45.455Z,61.16
2023-07-15T04:45:13.278Z,60.86
2023-07-15T04:47:40.547Z,60.03
2023-07-15T04:50:09.170Z,59.82
2023-07-15T04:52:35.740Z,59.67
2023-07-15T04:55:02.442Z,59.24
2023-07-15T04:57:29.071Z,59.17
2023-07-15T04:59:55.841Z,58.82
2023-07-15T05:02:22.872Z,58.47
2023-07-15T05:04:49.541Z,58.28
2023-07-15T05:07:17.508Z,58.16
2023-07-15T05:09:44.099Z,57.85
2023-07-15T05:12:11.517Z,57.58
2023-07-15T05:14:38.193Z,57.34
2023-07-15T05:17:06.355Z,57.22
2023-07-15T05:19:33.323Z,56.88
2023-07-15T05:21:59.896Z,56.75
2023-07-15T05:24:29.972Z,56.85
2023-07-15T05:26:56.696Z,56.50
2023-07-15T05:29:24.150Z,56.43
2023-07-15T05:31:51.399Z,56.27
2023-07-15T05:34:18.097Z,56.31
2023-07-15T05:36:44.651Z,55.90
2023-07-15T05:39:12.600Z,55.49
2023-07-15T05:41:40.532Z,55.41
2023-07-15T05:44:07.566Z,55.22
2023-07-15T05:46:34.289Z,55.09
2023-07-15T05:49:01.344Z,54.96
2023-07-15T05:51:28.259Z,54.80
2023-07-15T05:53:54.855Z,54.62
2023-07-15T05:56:21.501Z,54.59
2023-07-15T05:58:50.125Z,54.05
2023-07-15T06:01:17.082Z,54.14
2023-07-15T06:03:44.106Z,53.94
2023-07-15T06:06:10.806Z,53.77
2023-07-15T06:08:37.412Z,53.60
2023-07-15T06:11:05.010Z,53.87
2023-07-15T06:13:31.727Z,54.31
2023-07-15T06:15:59.773Z,53.46
2023-07-15T06:18:26.531Z,53.06
2023-07-15T06:20:53.192Z,53.00
2023-07-15T06:23:19.855Z,53.09
2023-07-15T06:25:46.417Z,52.92
2023-07-15T06:28:12.977Z,52.60
2023-07-15T06:30:39.643Z,52.97
2023-07-15T06:33:07.673Z,52.80
2023-07-15T06:35:34.299Z,53.42
2023-07-15T06:38:01.165Z,53.49
2023-07-15T06:40:28.427Z,53.04
2023-07-15T06:42:55.075Z,53.79
2023-07-15T06:45:23.090Z,53.23
2023-07-15T06:47:49.868Z,52.11
2023-07-15T06:50:17.862Z,51.40
2023-07-15T06:52:46.154Z,50.25
2023-07-15T06:55:12.893Z,49.75
2023-07-15T06:57:39.944Z,49.39
2023-07-15T07:00:07.456Z,48.77
2023-07-15T07:02:34.197Z,47.54
2023-07-15T07:05:01.199Z,47.83
2023-07-15T07:07:29.433Z,47.69
2023-07-15T07:09:56.398Z,46.78
2023-07-15T07:12:26.216Z,46.39
2023-07-15T07:14:52.904Z,45.11
2023-07-15T07:17:19.694Z,44.67
2023-07-15T07:19:47.900Z,44.97
2023-07-15T07:22:14.877Z,44.83
2023-07-15T07:24:43.423Z,44.30
2023-07-15T07:27:10.321Z,44.32
2023-07-15T07:29:36.998Z,44.91
2023-07-15T07:32:04.513Z,44.47
2023-07-15T07:34:31.197Z,44.56
2023-07-15T07:36:57.873Z,44.45
2023-07-15T07:39:24.523Z,44.84
2023-07-15T07:41:52.952Z,45.36
2023-07-15T07:44:19.822Z,43.85
2023-07-15T07:46:46.455Z,42.94
2023-07-15T07:49:13.079Z,42.40
2023-07-15T07:51:40.022Z,41.28
2023-07-15T07:54:06.674Z,41.61
2023-07-15T07:56:33.384Z,41.27
2023-07-15T07:59:05.155Z,40.62
2023-07-15T08:01:32.798Z,39.94
2023-07-15T08:03:59.840Z,40.31
2023-07-15T08:06:26.700Z,40.21
2023-07-15T08:08:54.362Z,39.92
2023-07-15T08:11:21.453Z,39.49
2023-07-15T08:13:48.035Z,40.35
2023-07-15T08:16:33.468Z,39.57
2023-07-15T08:19:00.558Z,39.55
2023-07-15T08:21:27.693Z,39.17
2023-07-15T08:23:55.031Z,38.69
2023-07-15T08:26:22.290Z,38.71
2023-07-15T08:28:49.013Z,37.89
2023-07-15T08:31:16.234Z,38.24
2023-07-15T08:33:44.784Z,37.26
2023-07-15T08:36:11.608Z,37.00
2023-07-15T08:38:38.221Z,36.53
2023-07-15T08:41:04.825Z,37.29
2023-07-15T08:43:32.163Z,37.12
2023-07-15T08:46:00.547Z,36.55
2023-07-15T08:48:27.508Z,35.55
2023-07-15T08:50:57.376Z,35.84
2023-07-15T08:53:26.002Z,35.94
2023-07-15T08:55:55.326Z,35.51
2023-07-15T08:58:22.468Z,33.17
2023-07-15T09:00:50.001Z,31.02
2023-07-15T09:03:17.041Z,28.75
2023-07-15T09:05:45.617Z,29.34
2023-07-15T09:08:14.820Z,30.42
2023-07-15T09:10:50.778Z,27.47
2023-07-15T09:13:22.211Z,27.45
2023-07-15T09:15:49.837Z,27.56
2023-07-15T09:18:16.584Z,27.68
2023-07-15T09:20:43.335Z,26.50
2023-07-15T09:23:10.356Z,27.37
2023-07-15T09:25:38.934Z,27.40
2023-07-15T09:28:09.140Z,26.95
2023-07-15T09:30:39.473Z,27.04
2023-07-15T09:33:06.431Z,26.75
2023-07-15T09:35:37.679Z,28.24
2023-07-15T09:38:09.861Z,28.42
2023-07-15T09:40:43.137Z,26.14
2023-07-15T09:43:09.893Z,25.72
2023-07-15T09:45:37.415Z,25.98
2023-07-15T09:48:05.728Z,27.00
2023-07-15T09:50:32.880Z,27.15
2023-07-15T09:53:00.866Z,27.49
2023-07-15T09:55:28.283Z,25.51
2023-07-15T09:57:57.894Z,26.86
2023-07-15T10:00:28.281Z,23.97
2023-07-15T10:02:57.430Z,24.16
2023-07-15T10:05:25.737Z,24.93
2023-07-15T10:07:52.708Z,24.71
2023-07-15T10:10:20.265Z,26.52
2023-07-15T10:12:47.634Z,26.56
2023-07-15T10:15:16.741Z,25.12
2023-07-15T10:17:46.049Z,24.02
2023-07-15T10:20:12.908Z,24.62
2023-07-15T10:22:40.399Z,24.08
2023-07-15T10:25:11.671Z,24.08
2023-07-15T10:27:38.902Z,24.31
2023-07-15T10:30:18.042Z,23.24
2023-07-15T10:33:07.052Z,24.42
2023-07-15T10:35:34.265Z,24.14
2023-07-15T10:38:03.747Z,25.11
2023-07-15T10:40:49.280Z,23.37
2023-07-15T10:43:17.565Z,23.08
2023-07-15T10:45:48.319Z,23.59
2023-07-15T10:48:15.032Z,24.68
2023-07-15T10:50:42.001Z,23.82
2023-07-15T10:53:22.524Z,24.61
2023-07-15T10:55:56.303Z,24.33
2023-07-15T10:58:22.892Z,23.56
2023-07-15T11:00:50.972Z,24.46
2023-07-15T11:03:18.045Z,24.24
2023-07-15T11:05:44.579Z,22.37
2023-07-15T11:08:11.320Z,22.74
2023-07-15T11:10:37.879Z,22.95
2023-07-15T11:13:14.043Z,22.90
2023-07-15T11:15:40.749Z,22.00
2023-07-15T11:18:14.482Z,22.49
2023-07-15T11:20:41.124Z,22.86
2023-07-15T11:23:07.991Z,23.56
2023-07-15T11:25:34.684Z,23.95
2023-07-15T11:28:01.396Z,23.41
2023-07-15T11:30:34.069Z,24.02
2023-07-15T11:33:00.677Z,22.54
2023-07-15T11:35:30.408Z,22.49
2023-07-15T11:37:56.963Z,22.36
2023-07-15T11:40:23.600Z,23.00
2023-07-15T11:42:50.468Z,23.19
2023-07-15T11:45:17.217Z,23.41
2023-07-15T11:47:45.535Z,23.24
2023-07-15T11:50:12.282Z,23.82
2023-07-15T11:52:43.902Z,23.88
2023-07-15T11:55:10.583Z,23.50
2023-07-15T11:57:42.304Z,22.95
2023-07-15T12:00:10.264Z,23.55
2023-07-15T12:02:38.580Z,23.21
2023-07-15T12:05:06.064Z,22.15
2023-07-15T12:07:33.184Z,22.89
2023-07-15T12:10:07.940Z,22.49
2023-07-15T12:12:34.528Z,23.97
2023-07-15T21:48:50.520Z,48.83
2023-07-15T21:51:17.105Z,49.03
